Time;durP1;ratioP1;P1;durP2;ratioP2;P2;SDS_P1;SDS_P2;PMS_P1;PMS_P2;Temp;Humidity;BMP_temperature;BMP_pressure;BME280_temperature;BME280_humidity;BME280_pressure;Samples;Min_cycle;Max_cycle;Signal;HPM_P1;HPM_P2
2022/07/23 00:01:38;;;;;;;5.82;4.15;;;;;;;23.84;45.43;96068.38;10128989;28;97568;-63
2022/07/23 00:06:41;;;;;;;5.72;4.60;;;;;;;23.71;45.95;96060.66;10124351;28;97170;-63
2022/07/23 00:11:45;;;;;;;6.05;4.40;;;;;;;23.44;46.91;96073.69;10125461;28;98845;-64
2022/07/23 00:16:48;;;;;;;4.53;3.97;;;;;;;23.29;47.23;96093.63;10122433;28;96858;-64
2022/07/23 00:21:51;;;;;;;4.93;4.50;;;;;;;23.11;46.47;96112.34;10123380;28;97058;-65
2022/07/23 00:26:55;;;;;;;5.53;4.90;;;;;;;23.26;46.44;96115.38;10124111;28;98770;-63
2022/07/23 00:31:58;;;;;;;5.38;4.75;;;;;;;23.05;48.78;96110.59;10125059;28;97685;-63
2022/07/23 00:37:01;;;;;;;5.57;4.95;;;;;;;22.80;53.66;96122.25;10129464;28;96862;-63
2022/07/23 00:42:06;;;;;;;7.45;5.55;;;;;;;22.63;56.62;96138.88;10111451;28;97771;-64
2022/07/23 00:47:09;;;;;;;9.45;5.90;;;;;;;21.96;57.23;96140.72;10119775;28;96983;-64
2022/07/23 00:52:12;;;;;;;18.75;7.40;;;;;;;21.96;59.43;96125.56;10123309;28;96897;-63
2022/07/23 00:57:16;;;;;;;6.07;5.35;;;;;;;21.93;57.52;96151.78;10125970;28;96943;-64
2022/07/23 01:02:19;;;;;;;7.88;6.32;;;;;;;21.72;59.26;96174.31;10125315;28;96871;-66
2022/07/23 01:07:23;;;;;;;8.82;6.15;;;;;;;21.54;60.89;96159.13;10122286;28;97988;-66
2022/07/23 01:12:27;;;;;;;9.53;6.80;;;;;;;21.44;62.20;96141.81;10119108;28;98754;-63
2022/07/23 01:17:30;;;;;;;10.38;6.85;;;;;;;21.24;62.64;96141.16;10123774;28;98957;-68
2022/07/23 01:22:35;;;;;;;8.73;7.03;;;;;;;21.04;64.35;96133.38;10119787;28;96876;-63
2022/07/23 01:27:38;;;;;;;7.50;6.70;;;;;;;21.01;65.34;96115.22;10124069;28;97219;-63
2022/07/23 01:32:42;;;;;;;10.95;7.63;;;;;;;20.79;66.20;96128.03;10123061;28;96941;-63
2022/07/23 01:37:46;;;;;;;11.30;7.67;;;;;;;20.57;67.28;96125.69;10124904;28;99053;-63
2022/07/23 01:42:49;;;;;;;;;;;;;;;20.60;65.69;96130.59;10120657;28;97420;-63
2022/07/23 01:47:52;;;;;;;9.98;6.60;;;;;;;20.70;67.65;96143.38;10122956;28;97587;-63
2022/07/23 01:52:56;;;;;;;8.15;7.35;;;;;;;20.92;68.43;96159.81;10111638;28;96791;-64
2022/07/23 01:57:59;;;;;;;8.95;7.88;;;;;;;20.90;68.69;96146.75;10122464;28;96918;-64
2022/07/23 02:03:02;;;;;;;10.05;8.00;;;;;;;20.65;70.22;96152.00;10121172;28;97485;-64
2022/07/23 02:08:06;;;;;;;9.80;8.20;;;;;;;20.61;70.16;96156.09;10119338;28;97702;-63
2022/07/23 02:13:09;;;;;;;;;;;;;;;20.52;68.70;96175.94;10122409;28;97571;-64
2022/07/23 02:18:12;;;;;;;29.98;12.63;;;;;;;20.50;70.39;96170.03;10121861;28;98868;-63
2022/07/23 02:23:16;;;;;;;13.10;9.70;;;;;;;20.51;72.42;96174.31;10113890;28;97568;-64
2022/07/23 02:28:19;;;;;;;10.73;8.13;;;;;;;20.41;73.24;96158.03;10121167;28;98883;-63
2022/07/23 02:33:22;;;;;;;10.73;8.80;;;;;;;20.36;73.96;96156.03;10114003;28;97407;-63
2022/07/23 02:38:26;;;;;;;11.63;9.82;;;;;;;20.35;74.17;96141.91;10121689;28;98887;-63
2022/07/23 02:43:29;;;;;;;13.35;10.43;;;;;;;20.24;74.42;96152.41;10115623;28;98005;-65
2022/07/23 02:48:32;;;;;;;13.07;9.80;;;;;;;19.98;74.78;96144.31;10115316;28;97903;-63
2022/07/23 02:53:38;;;;;;;12.57;10.45;;;;;;;19.75;75.96;96128.06;10119330;28;97112;-63
2022/07/23 02:58:41;;;;;;;13.95;10.50;;;;;;;19.73;77.02;96148.66;10120836;28;98620;-66
2022/07/23 03:03:44;;;;;;;10.32;9.25;;;;;;;19.87;76.23;96150.28;10119010;28;97369;-63
2022/07/23 03:08:48;;;;;;;11.05;9.85;;;;;;;20.10;75.97;96146.34;10120603;28;96815;-63
2022/07/23 03:13:51;;;;;;;10.40;9.30;;;;;;;20.25;75.73;96144.25;10114061;28;99233;-64
2022/07/23 03:18:54;;;;;;;11.15;9.80;;;;;;;20.20;76.21;96141.41;10119812;28;98062;-63
2022/07/23 03:23:58;;;;;;;11.32;9.02;;;;;;;20.18;76.09;96136.31;10119929;28;98985;-64
2022/07/23 03:29:03;;;;;;;12.18;9.95;;;;;;;20.17;76.26;96144.47;10119123;28;98824;-63
2022/07/23 03:34:06;;;;;;;11.88;10.60;;;;;;;20.06;76.52;96135.34;10121484;28;97969;-63
2022/07/23 03:39:11;;;;;;;11.45;10.25;;;;;;;20.08;77.32;96158.97;10126731;28;97718;-63
2022/07/23 03:44:16;;;;;;;12.30;10.80;;;;;;;19.84;77.44;96148.06;10125361;28;97642;-64
2022/07/23 03:49:19;;;;;;;13.18;10.82;;;;;;;19.74;78.16;96142.34;10125098;28;97105;-64
2022/07/23 03:54:23;;;;;;;11.90;9.23;;;;;;;19.79;77.29;96145.19;10127470;28;99069;-63
2022/07/23 03:59:26;;;;;;;12.82;9.45;;;;;;;19.89;76.22;96150.88;10124622;28;99411;-63
2022/07/23 04:04:29;;;;;;;10.05;9.15;;;;;;;19.98;76.09;96152.28;10124932;28;97783;-63
2022/07/23 04:09:34;;;;;;;11.73;10.20;;;;;;;20.08;76.53;96145.72;10124430;28;98085;-63
2022/07/23 04:14:37;;;;;;;11.85;10.48;;;;;;;20.15;76.87;96138.56;10123528;28;98758;-67
2022/07/23 04:19:41;;;;;;;13.43;11.07;;;;;;;20.03;77.54;96140.25;10124003;28;97735;-66
2022/07/23 04:24:45;;;;;;;13.83;11.47;;;;;;;19.97;77.73;96137.41;10127033;28;98058;-63
2022/07/23 04:29:48;;;;;;;11.15;10.07;;;;;;;19.91;77.29;96148.84;10124933;28;98664;-64
2022/07/23 04:34:51;;;;;;;11.32;9.93;;;;;;;19.88;77.61;96153.75;10121168;28;97235;-68
2022/07/23 04:39:55;;;;;;;10.07;9.05;;;;;;;19.96;77.17;96166.78;10114671;28;99063;-64
2022/07/23 04:44:58;;;;;;;11.27;9.90;;;;;;;20.08;77.14;96181.03;10126135;28;96980;-65
2022/07/23 04:50:01;;;;;;;11.00;9.85;;;;;;;19.99;77.13;96183.09;10126511;28;97181;-63
2022/07/23 04:55:06;;;;;;;10.38;9.40;;;;;;;19.91;77.30;96193.91;10126972;28;97444;-64
2022/07/23 05:00:10;;;;;;;11.30;9.48;;;;;;;20.04;77.28;96189.59;10122365;28;99620;-63
2022/07/23 05:05:13;;;;;;;10.13;9.07;;;;;;;20.16;76.52;96194.03;10122666;28;98728;-63
2022/07/23 05:10:18;;;;;;;10.20;9.13;;;;;;;20.27;76.00;96184.63;10119521;28;98499;-63
2022/07/23 05:15:21;;;;;;;9.63;8.65;;;;;;;20.32;76.05;96186.63;10122444;28;99787;-63
2022/07/23 05:20:24;;;;;;;9.32;8.52;;;;;;;20.48;75.30;96198.63;10122310;28;97173;-64
2022/07/23 05:25:29;;;;;;;9.88;8.60;;;;;;;20.70;75.44;96205.25;10119774;28;97737;-63
2022/07/23 05:30:31;;;;;;;;;;;;;;;20.94;74.29;96216.16;10122176;28;96997;-63
2022/07/23 05:35:34;;;;;;;10.25;9.23;;;;;;;21.02;74.51;96218.56;10120278;28;100904;-65
2022/07/23 05:40:38;;;;;;;11.02;9.60;;;;;;;20.80;75.11;96227.91;10121844;28;96866;-64
2022/07/23 05:45:41;;;;;;;9.68;8.77;;;;;;;20.90;75.55;96228.25;10120865;28;97192;-63
2022/07/23 05:50:44;;;;;;;10.73;9.40;;;;;;;21.07;75.14;96244.50;10121089;28;98622;-67
2022/07/23 05:55:49;;;;;;;10.68;9.50;;;;;;;21.18;75.49;96243.00;10113950;28;97832;-63
2022/07/23 06:00:51;;;;;;;;;;;;;;;21.30;74.21;96243.94;10119684;28;98922;-64
2022/07/23 06:05:54;;;;;;;11.35;9.90;;;;;;;21.45;74.39;96236.47;10121768;28;97185;-64
2022/07/23 06:10:58;;;;;;;10.98;9.82;;;;;;;21.69;73.56;96239.34;10117192;28;96971;-63
2022/07/23 06:16:01;;;;;;;;;;;;;;;21.85;72.97;96244.13;10123698;28;98441;-63
2022/07/23 06:21:04;;;;;;;11.00;9.90;;;;;;;21.91;72.49;96250.41;10120771;28;97027;-66
2022/07/23 06:26:28;;;;;;;13.40;10.88;;;;;;;22.08;72.89;96245.34;10120767;28;97886;-63
2022/07/23 06:31:31;;;;;;;;;;;;;;;22.30;72.00;96242.25;10125383;28;96873;-63
2022/07/23 06:36:34;;;;;;;12.23;10.27;;;;;;;22.44;70.94;96241.09;10119742;28;97508;-63
2022/07/23 06:41:39;;;;;;;10.93;9.70;;;;;;;22.55;70.93;96243.00;10117812;28;98345;-65
2022/07/23 06:46:42;;;;;;;11.05;9.15;;;;;;;22.65;71.25;96245.16;10115519;28;97141;-65
2022/07/23 06:51:45;;;;;;;11.73;9.00;;;;;;;22.72;70.74;96245.88;10113195;28;97942;-63
2022/07/23 06:56:49;;;;;;;10.70;9.60;;;;;;;22.79;70.12;96237.81;10118268;28;97203;-63
2022/07/23 07:01:52;;;;;;;9.65;8.65;;;;;;;23.08;70.52;96246.84;10115039;28;97868;-64
2022/07/23 07:06:55;;;;;;;10.13;8.60;;;;;;;23.48;67.94;96246.28;10124375;28;96872;-64
2022/07/23 07:11:59;;;;;;;9.05;8.05;;;;;;;23.62;66.38;96254.88;10127226;28;97030;-64
2022/07/23 07:17:03;;;;;;;8.60;7.70;;;;;;;23.60;65.28;96254.28;10119029;28;97702;-63
2022/07/23 07:22:06;;;;;;;8.95;8.00;;;;;;;23.73;64.75;96256.75;10132502;28;97061;-63
2022/07/23 07:27:10;;;;;;;8.63;7.78;;;;;;;24.07;64.04;96249.03;10125084;28;99141;-65
2022/07/23 07:32:13;;;;;;;8.55;7.60;;;;;;;24.33;61.82;96246.88;10127994;28;97931;-64
2022/07/23 07:37:36;;;;;;;10.48;7.20;;;;;;;24.32;60.96;96250.63;10118160;28;98228;-64
2022/07/23 07:42:47;;;;;;;13.83;7.73;;;;;;;24.59;60.25;96250.09;10124951;28;96933;-65
2022/07/23 07:47:50;;;;;;;8.77;7.88;;;;;;;24.94;59.90;96241.16;10130915;28;99166;-67
2022/07/23 07:52:53;;;;;;;9.13;7.63;;;;;;;25.24;58.66;96247.06;10119963;28;100859;-66
2022/07/23 07:57:57;;;;;;;8.20;7.38;;;;;;;25.64;58.12;96244.56;10143328;28;99776;-65
2022/07/23 08:03:04;;;;;;;10.18;8.38;;;;;;;25.94;58.62;96245.00;10130402;28;97278;-65
2022/07/23 08:08:09;;;;;;;10.20;7.85;;;;;;;26.14;56.86;96241.03;10123882;28;97217;-67
2022/07/23 08:13:15;;;;;;;10.55;8.63;;;;;;;26.37;56.56;96237.34;10127918;28;96989;-65
2022/07/23 08:18:18;;;;;;;10.80;8.25;;;;;;;26.59;55.33;96241.88;10125909;28;96909;-66
2022/07/23 08:23:21;;;;;;;9.43;8.53;;;;;;;26.78;54.92;96226.28;10125900;28;96838;-65
2022/07/23 08:28:33;;;;;;;8.57;7.78;;;;;;;26.61;54.85;96243.25;10127898;28;97542;-65
2022/07/23 08:33:36;;;;;;;8.23;7.43;;;;;;;26.55;54.03;96233.53;10127039;28;96964;-68
2022/07/23 08:38:39;;;;;;;8.43;7.03;;;;;;;26.60;54.23;96247.00;10126131;28;97868;-65
2022/07/23 08:43:43;;;;;;;7.60;6.90;;;;;;;26.65;53.81;96240.91;10131059;28;97217;-65
2022/07/23 08:48:50;;;;;;;10.77;7.47;;;;;;;26.77;52.26;96238.09;10128441;28;96911;-65
2022/07/23 08:53:54;;;;;;;7.55;6.85;;;;;;;26.94;51.86;96238.84;10130168;28;96880;-66
2022/07/23 08:58:58;;;;;;;8.05;6.55;;;;;;;27.23;50.07;96243.94;10126490;28;96695;-65
2022/07/23 09:04:02;;;;;;;8.70;6.53;;;;;;;27.31;48.77;96240.81;10128068;28;96882;-66
2022/07/23 09:09:18;;;;;;;7.60;6.70;;;;;;;27.41;49.36;96230.19;10125813;28;98123;-65
2022/07/23 09:14:37;;;;;;;7.88;6.78;;;;;;;27.57;49.02;96239.16;10124683;28;98189;-65
2022/07/23 09:19:41;;;;;;;7.72;6.78;;;;;;;27.85;48.15;96246.09;10124940;28;98200;-66
2022/07/23 09:25:03;;;;;;;8.23;6.97;;;;;;;28.12;47.58;96231.78;10134966;28;97593;-65
2022/07/23 09:30:09;;;;;;;7.13;6.43;;;;;;;28.38;47.74;96240.03;10124874;28;98745;-66
2022/07/23 09:35:12;;;;;;;8.07;7.28;;;;;;;28.82;47.27;96239.66;10134452;28;97069;-65
2022/07/23 09:40:17;;;;;;;7.88;7.10;;;;;;;29.24;45.86;96229.81;10122929;28;96901;-66
2022/07/23 09:45:22;;;;;;;7.78;7.05;;;;;;;29.47;44.72;96228.50;10126507;28;98534;-65
2022/07/23 09:50:24;;;;;;;7.43;6.40;;;;;;;29.83;44.40;96236.59;10128568;28;96818;-65
2022/07/23 09:55:36;;;;;;;7.97;7.18;;;;;;;29.91;43.42;96236.06;10146307;28;96843;-65
2022/07/23 10:00:42;;;;;;;7.40;6.80;;;;;;;30.26;42.59;96243.28;10127582;28;97144;-65
2022/07/23 10:05:46;;;;;;;8.43;6.72;;;;;;;30.58;42.12;96241.28;10119941;28;97208;-65
2022/07/23 10:10:49;;;;;;;7.45;6.70;;;;;;;30.24;42.95;96244.66;10152459;28;97934;-65
2022/07/23 10:15:54;;;;;;;7.43;6.20;;;;;;;30.43;42.77;96245.66;10144099;28;96841;-65
2022/07/23 10:20:57;;;;;;;8.05;6.40;;;;;;;30.78;41.82;96238.53;10132228;28;97599;-66
2022/07/23 10:26:04;;;;;;;;;;;;;;;30.98;42.32;96231.44;10126036;28;96876;-65
2022/07/23 10:31:22;;;;;;;6.97;6.28;;;;;;;30.90;41.46;96232.81;10128421;28;97530;-65
2022/07/23 10:36:50;;;;;;;7.55;6.65;;;;;;;31.22;40.58;96237.78;10123560;28;98119;-66
2022/07/23 10:42:08;;;;;;;7.70;6.70;;;;;;;31.51;40.52;96239.75;10116740;28;97296;-64
2022/07/23 10:52:42;;;;;;;7.82;7.03;;;;;;;30.96;40.39;96239.78;10133581;28;98256;-66
2022/07/23 10:57:50;;;;;;;7.90;6.60;;;;;;;30.77;41.01;96226.16;10131223;28;97669;-65
2022/07/23 11:02:55;;;;;;;7.95;6.85;;;;;;;30.38;41.63;96229.50;10123311;28;97088;-65
2022/07/23 11:08:22;;;;;;;9.32;7.30;;;;;;;30.13;41.66;96222.28;10131283;28;97202;-66
2022/07/23 11:13:33;;;;;;;9.07;6.93;;;;;;;30.27;41.26;96227.94;10109051;28;98702;-66
2022/07/23 11:19:09;;;;;;;8.68;6.70;;;;;;;30.84;40.26;96223.97;10119336;28;97950;-65
2022/07/23 11:24:14;;;;;;;7.30;6.60;;;;;;;31.31;39.73;96218.25;10129221;28;96903;-66
2022/07/23 11:29:44;;;;;;;7.85;6.22;;;;;;;31.49;39.20;96220.31;10133529;28;96892;-66
2022/07/23 11:34:53;;;;;;;6.85;6.10;;;;;;;31.54;38.75;96225.69;10137821;28;97036;-66
2022/07/23 11:39:56;;;;;;;7.72;6.93;;;;;;;31.66;38.77;96221.78;10133903;28;96843;-66
2022/07/23 11:45:00;;;;;;;7.15;6.45;;;;;;;31.42;38.85;96217.94;10136269;28;96784;-65
2022/07/23 11:50:06;;;;;;;;;;;;;;;31.39;39.66;96212.31;10140601;28;96821;-66
2022/07/23 11:55:11;;;;;;;7.18;6.47;;;;;;;31.05;40.30;96218.47;10139678;28;96892;-66
2022/07/23 12:00:16;;;;;;;7.43;6.55;;;;;;;30.77;41.85;96219.94;10126414;28;96940;-66
2022/07/23 12:05:23;;;;;;;7.50;6.85;;;;;;;30.51;40.87;96211.94;10125910;28;96879;-66
2022/07/23 12:10:28;;;;;;;7.80;6.95;;;;;;;30.44;41.52;96212.25;10125986;28;98751;-65
2022/07/23 12:15:33;;;;;;;8.15;6.75;;;;;;;30.24;42.32;96196.94;10128974;28;97070;-68
2022/07/23 12:20:39;;;;;;;8.07;6.47;;;;;;;30.33;42.16;96202.56;10137943;28;96753;-66
2022/07/23 12:25:44;;;;;;;7.30;6.60;;;;;;;29.95;41.62;96209.38;10132113;28;97253;-65
2022/07/23 12:30:49;;;;;;;7.30;6.55;;;;;;;29.85;41.22;96210.19;10125878;28;96819;-65
2022/07/23 12:35:55;;;;;;;7.45;6.60;;;;;;;29.88;40.92;96218.53;10127756;28;98438;-66
2022/07/23 12:40:59;;;;;;;7.53;6.60;;;;;;;29.93;40.63;96212.34;10131581;28;97015;-66
2022/07/23 12:46:05;;;;;;;7.20;6.10;;;;;;;29.95;40.98;96214.78;10130392;28;100421;-66
2022/07/23 12:51:15;;;;;;;6.50;5.90;;;;;;;29.95;41.23;96212.88;10122752;28;97088;-65
2022/07/23 12:56:40;;;;;;;6.78;6.15;;;;;;;30.04;40.67;96208.56;10123473;28;97252;-65
2022/07/23 13:01:48;;;;;;;8.23;6.13;;;;;;;30.34;40.34;96211.47;10118611;28;97477;-73
2022/07/23 13:06:57;;;;;;;7.72;6.95;;;;;;;30.45;40.48;96218.44;10123215;28;97053;-69
2022/07/23 13:12:20;;;;;;;6.82;6.15;;;;;;;30.83;40.64;96206.16;10126018;28;98630;-69
2022/07/23 13:17:23;;;;;;;7.70;6.97;;;;;;;30.93;40.06;96202.59;10132124;28;98646;-70
2022/07/23 13:22:27;;;;;;;7.47;6.47;;;;;;;31.23;39.26;96201.59;10140087;28;96861;-69
2022/07/23 13:27:30;;;;;;;7.03;6.25;;;;;;;31.19;39.58;96200.53;10123513;28;98005;-74
2022/07/23 13:32:41;;;;;;;7.18;6.47;;;;;;;30.94;40.30;96204.19;10135416;28;96844;-70
2022/07/23 13:37:45;;;;;;;6.47;5.88;;;;;;;30.79;40.01;96201.59;10137761;28;96824;-70
2022/07/23 13:42:49;;;;;;;6.97;6.32;;;;;;;30.73;39.95;96192.69;10135042;28;97314;-70
2022/07/23 13:47:52;;;;;;;;;;;;;;;31.16;39.62;96201.09;10139516;28;96941;-70
2022/07/23 13:52:57;;;;;;;7.40;6.70;;;;;;;31.59;38.62;96187.03;10132670;28;96848;-70
2022/07/23 13:58:00;;;;;;;7.07;6.40;;;;;;;31.70;38.17;96187.75;10121922;28;96955;-71
2022/07/23 14:03:03;;;;;;;6.82;6.13;;;;;;;31.83;37.89;96192.47;10128520;28;98290;-70
2022/07/23 14:08:08;;;;;;;6.80;6.20;;;;;;;31.94;37.88;96182.41;10128803;28;96806;-70
2022/07/23 14:13:11;;;;;;;6.72;6.03;;;;;;;32.13;37.31;96186.00;10129425;28;97715;-70
2022/07/23 14:18:14;;;;;;;7.72;5.93;;;;;;;32.23;38.74;96170.75;10127867;28;96806;-71
2022/07/23 14:23:18;;;;;;;7.15;6.45;;;;;;;33.37;36.37;96177.06;10127953;28;96943;-71
2022/07/23 14:28:21;;;;;;;7.57;5.95;;;;;;;35.41;33.79;96188.81;10124321;28;101340;-70
2022/07/23 14:33:24;;;;;;;6.10;5.60;;;;;;;34.61;33.48;96183.78;10127785;28;97174;-70
2022/07/23 14:38:30;;;;;;;7.00;6.30;;;;;;;33.35;35.17;96176.56;10124623;28;99141;-72
2022/07/23 14:43:33;;;;;;;6.05;5.47;;;;;;;31.70;37.24;96182.34;10116509;28;96882;-72
2022/07/23 14:48:37;;;;;;;6.72;6.13;;;;;;;30.72;38.05;96179.50;10130821;28;96772;-70
2022/07/23 14:53:42;;;;;;;6.53;5.93;;;;;;;30.26;38.88;96177.81;10128741;28;97073;-71
2022/07/23 14:58:45;;;;;;;6.65;5.95;;;;;;;29.74;39.68;96183.28;10128834;28;98077;-70
2022/07/23 15:03:51;;;;;;;7.95;5.90;;;;;;;31.03;38.17;96191.75;10111140;28;100808;-70
2022/07/23 15:09:00;;;;;;;6.20;5.38;;;;;;;31.83;37.21;96192.47;10116269;28;97099;-71
2022/07/23 15:14:04;;;;;;;5.75;5.20;;;;;;;32.87;35.20;96188.34;10118766;28;97542;-71
2022/07/23 15:19:07;;;;;;;6.28;5.70;;;;;;;33.93;33.22;96188.06;10122662;28;96988;-73
2022/07/23 15:24:12;;;;;;;5.47;4.97;;;;;;;33.71;33.49;96184.13;10140388;28;96828;-72
2022/07/23 15:29:15;;;;;;;7.40;5.20;;;;;;;33.86;33.65;96185.75;10136139;28;96897;-70
2022/07/23 15:34:22;;;;;;;5.97;5.28;;;;;;;34.54;32.32;96183.38;10139652;28;98653;-71
2022/07/23 15:39:27;;;;;;;5.75;5.00;;;;;;;35.56;31.44;96177.56;10149963;28;97904;-71
2022/07/23 15:44:31;;;;;;;5.47;4.95;;;;;;;36.69;29.80;96190.09;10138659;28;97415;-72
2022/07/23 15:49:34;;;;;;;5.40;4.90;;;;;;;37.35;29.10;96192.75;10138095;28;96843;-71
2022/07/23 15:54:39;;;;;;;5.90;5.35;;;;;;;37.73;29.10;96192.06;10130644;28;97023;-71
2022/07/23 15:59:43;;;;;;;5.55;5.05;;;;;;;37.00;29.46;96187.28;10126724;28;98055;-71
2022/07/23 16:04:46;;;;;;;5.70;5.10;;;;;;;35.75;30.71;96187.47;10131550;28;97691;-72
2022/07/23 16:09:50;;;;;;;8.75;6.38;;;;;;;34.58;31.83;96177.06;10128658;28;96957;-71
2022/07/23 16:14:53;;;;;;;6.45;5.85;;;;;;;33.46;33.30;96178.00;10133417;28;98392;-71
2022/07/23 16:19:56;;;;;;;8.68;5.93;;;;;;;32.85;34.08;96174.28;10127047;28;97405;-71
2022/07/23 16:25:00;;;;;;;6.95;6.28;;;;;;;32.99;34.37;96173.56;10128051;28;97740;-71
2022/07/23 16:30:05;;;;;;;6.30;5.70;;;;;;;33.35;33.60;96173.84;10128639;28;97390;-70
2022/07/23 16:35:09;;;;;;;6.05;5.55;;;;;;;34.00;32.82;96180.34;10117043;28;97154;-72
2022/07/23 16:40:17;;;;;;;6.75;5.30;;;;;;;34.22;32.40;96177.78;10109715;28;97789;-67
2022/07/23 16:45:20;;;;;;;6.45;5.70;;;;;;;34.62;31.83;96168.31;10120193;28;100330;-67
2022/07/23 16:50:23;;;;;;;6.25;5.57;;;;;;;33.94;32.81;96170.72;10122507;28;97364;-67
2022/07/23 16:55:27;;;;;;;6.68;6.00;;;;;;;33.33;33.74;96164.44;10131654;28;97258;-67
2022/07/23 17:00:30;;;;;;;6.25;5.70;;;;;;;32.55;35.03;96172.81;10130061;28;97006;-67
2022/07/23 17:05:33;;;;;;;7.05;6.35;;;;;;;31.80;36.12;96174.16;10131993;28;96819;-67
2022/07/23 17:10:37;;;;;;;6.93;5.90;;;;;;;32.15;35.53;96172.19;10131946;28;96992;-67
2022/07/23 17:15:40;;;;;;;8.38;5.63;;;;;;;33.52;33.79;96169.81;10132197;28;96802;-67
2022/07/23 17:20:43;;;;;;;8.30;5.72;;;;;;;34.57;32.64;96169.22;10128775;28;96812;-68
2022/07/23 17:25:48;;;;;;;5.35;4.85;;;;;;;34.99;31.85;96177.28;10128878;28;97095;-67
2022/07/23 17:30:50;;;;;;;7.63;5.78;;;;;;;34.71;32.29;96177.34;10125990;28;97153;-67
2022/07/23 17:35:55;;;;;;;6.80;5.47;;;;;;;33.99;33.13;96173.31;10120447;28;96900;-67
2022/07/23 17:40:59;;;;;;;7.30;5.43;;;;;;;32.38;35.02;96186.00;10130659;28;96893;-68
2022/07/23 17:46:03;;;;;;;6.57;5.50;;;;;;;31.29;36.79;96188.06;10132506;28;96867;-67
2022/07/23 17:51:07;;;;;;;6.78;6.07;;;;;;;30.42;38.21;96190.13;10127815;28;97125;-67
2022/07/23 17:56:13;;;;;;;7.88;5.95;;;;;;;29.50;40.06;96201.06;10136651;28;98075;-66
2022/07/23 18:01:16;;;;;;;11.13;6.28;;;;;;;29.11;40.52;96196.19;10124203;28;96947;-66
2022/07/23 18:06:19;;;;;;;;;;;;;;;28.83;40.13;96189.38;10136017;28;97335;-67
2022/07/23 18:11:24;;;;;;;7.93;5.55;;;;;;;28.56;41.30;96201.13;10134789;28;96860;-67
2022/07/23 18:16:29;;;;;;;8.30;6.30;;;;;;;28.15;42.17;96207.09;10142637;28;96869;-67
2022/07/23 18:21:33;;;;;;;9.45;6.30;;;;;;;28.01;42.63;96214.81;10157860;28;96906;-68
2022/07/23 18:26:37;;;;;;;7.20;6.50;;;;;;;27.80;42.82;96216.53;10143402;28;97110;-68
2022/07/23 18:31:40;;;;;;;7.88;5.90;;;;;;;27.71;43.04;96228.81;10132140;28;96928;-67
2022/07/23 18:36:43;;;;;;;9.77;6.43;;;;;;;27.65;43.41;96224.50;10133279;28;98101;-67
2022/07/23 18:41:49;;;;;;;8.82;6.15;;;;;;;27.35;44.22;96231.19;10136743;28;97156;-67
2022/07/23 18:46:52;;;;;;;7.15;6.45;;;;;;;27.09;44.61;96233.66;10139479;28;97289;-68
2022/07/23 18:51:56;;;;;;;6.97;6.25;;;;;;;27.03;44.84;96250.72;10133584;28;96848;-67
2022/07/23 18:57:00;;;;;;;7.73;6.17;;;;;;;26.83;45.14;96250.47;10135072;28;97002;-67
2022/07/23 19:02:03;;;;;;;7.40;6.55;;;;;;;26.70;45.60;96263.19;10127942;28;96783;-67
2022/07/23 19:07:07;;;;;;;;;;;;;;;26.60;44.90;96262.25;10135601;28;97213;-70
2022/07/23 19:12:11;;;;;;;7.03;6.32;;;;;;;26.59;45.68;96261.47;10135154;28;96916;-69
2022/07/23 19:17:14;;;;;;;6.95;6.22;;;;;;;26.64;45.64;96272.25;10135187;28;96827;-67
2022/07/23 19:22:17;;;;;;;7.60;6.50;;;;;;;26.64;46.30;96274.94;10131940;28;97155;-68
2022/07/23 19:27:23;;;;;;;7.43;6.67;;;;;;;26.66;46.28;96283.53;10134834;28;96839;-68
2022/07/23 19:32:26;;;;;;;7.25;6.47;;;;;;;26.65;46.29;96291.81;10133488;28;97387;-67
2022/07/23 19:37:28;;;;;;;7.20;6.50;;;;;;;26.53;46.46;96294.59;10134269;28;96941;-67
2022/07/23 19:42:33;;;;;;;10.10;6.97;;;;;;;26.44;46.37;96301.44;10133979;28;99041;-67
2022/07/23 19:47:43;;;;;;;8.48;6.43;;;;;;;26.24;46.78;96308.09;10128049;28;97206;-68
2022/07/23 19:52:49;;;;;;;7.28;6.57;;;;;;;26.13;46.93;96311.69;10131942;28;97285;-67
2022/07/23 19:57:55;;;;;;;8.00;7.00;;;;;;;25.98;47.13;96313.06;10125626;28;97046;-67
2022/07/23 20:02:58;;;;;;;7.80;7.00;;;;;;;25.85;47.70;96310.72;10130891;28;97802;-69
2022/07/23 20:08:01;;;;;;;7.50;6.53;;;;;;;25.73;48.26;96312.66;10137391;28;96870;-69
2022/07/23 20:13:05;;;;;;;9.40;7.00;;;;;;;25.57;48.51;96314.25;10148202;28;96808;-68
2022/07/23 20:18:08;;;;;;;8.00;7.20;;;;;;;25.52;48.69;96312.28;10141574;28;98666;-67
2022/07/23 20:23:13;;;;;;;7.53;6.78;;;;;;;25.51;48.61;96310.66;10135341;28;96874;-68
2022/07/23 20:28:18;;;;;;;7.57;6.77;;;;;;;25.49;48.94;96307.41;10137614;28;97169;-67
2022/07/23 20:33:24;;;;;;;7.97;7.18;;;;;;;25.32;49.12;96315.41;10164543;28;97758;-69
2022/07/23 20:38:27;;;;;;;7.80;6.75;;;;;;;25.25;49.59;96320.06;10157482;28;96790;-68
2022/07/23 20:43:34;;;;;;;8.77;7.70;;;;;;;25.18;49.75;96312.22;10152590;28;97531;-67
2022/07/23 20:48:37;;;;;;;8.82;7.90;;;;;;;25.10;50.51;96325.94;10138840;28;97082;-67
2022/07/23 20:53:40;;;;;;;8.73;7.83;;;;;;;24.99;50.97;96334.78;10137373;28;96854;-68
2022/07/23 20:58:44;;;;;;;8.53;7.73;;;;;;;24.79;51.47;96345.88;10125160;28;96759;-67
2022/07/23 21:03:47;;;;;;;9.43;7.75;;;;;;;24.52;52.26;96358.91;10120567;28;96834;-67
2022/07/23 21:08:50;;;;;;;8.13;7.33;;;;;;;24.43;51.84;96361.09;10125300;28;99170;-68
2022/07/23 21:13:55;;;;;;;8.53;7.67;;;;;;;24.29;52.16;96368.53;10127697;28;97263;-68
2022/07/23 21:18:58;;;;;;;8.98;7.97;;;;;;;24.12;52.97;96371.91;10113249;28;97803;-71
2022/07/23 21:24:01;;;;;;;8.07;7.00;;;;;;;24.02;53.11;96373.44;10125017;28;97560;-70
2022/07/23 21:29:06;;;;;;;8.55;7.72;;;;;;;23.99;53.41;96363.25;10118418;28;97191;-70
2022/07/23 21:34:09;;;;;;;9.30;8.30;;;;;;;23.94;53.72;96369.28;10122252;28;98982;-70
2022/07/23 21:39:13;;;;;;;7.97;7.28;;;;;;;23.88;53.41;96371.00;10122741;28;98597;-69
2022/07/23 21:44:18;;;;;;;8.93;8.07;;;;;;;23.81;53.64;96369.47;10122370;28;97092;-68
2022/07/23 21:49:21;;;;;;;7.97;7.18;;;;;;;23.88;53.52;96378.19;10126603;28;100442;-71
2022/07/23 21:54:25;;;;;;;9.07;7.47;;;;;;;23.97;53.45;96376.84;10119796;28;98906;-69
2022/07/23 21:59:31;;;;;;;;;;;;;;;23.99;53.07;96366.72;10115969;28;98529;-66
2022/07/23 22:04:34;;;;;;;8.68;7.50;;;;;;;23.88;53.43;96363.00;10133588;28;98544;-74
2022/07/23 22:09:37;;;;;;;8.93;8.13;;;;;;;23.78;54.47;96369.94;10145478;28;97018;-74
2022/07/23 22:14:41;;;;;;;10.20;8.55;;;;;;;23.70;55.05;96371.06;10137083;28;97010;-74
2022/07/23 22:19:44;;;;;;;8.48;7.10;;;;;;;23.54;55.05;96365.34;10138994;28;97722;-74
2022/07/23 22:24:47;;;;;;;7.90;7.05;;;;;;;23.31;55.96;96368.72;10133933;28;96739;-74
2022/07/23 22:29:51;;;;;;;10.93;7.70;;;;;;;23.11;56.38;96368.13;10129477;28;97044;-74
2022/07/23 22:34:54;;;;;;;9.35;8.27;;;;;;;22.97;57.18;96368.28;10133248;28;96838;-74
2022/07/23 22:39:57;;;;;;;8.55;7.70;;;;;;;22.67;57.70;96372.75;10132205;28;96877;-74
2022/07/23 22:45:01;;;;;;;9.75;8.38;;;;;;;22.56;57.95;96371.59;10133743;28;97171;-74
2022/07/23 22:50:05;;;;;;;8.52;7.32;;;;;;;22.43;58.38;96383.19;10140649;28;97370;-74
2022/07/23 22:55:12;;;;;;;10.43;9.48;;;;;;;22.30;58.76;96383.28;10130596;28;97136;-74
2022/07/23 23:00:17;;;;;;;10.40;9.18;;;;;;;22.17;59.47;96385.03;10119723;28;97213;-74
2022/07/23 23:05:21;;;;;;;9.38;8.32;;;;;;;22.01;60.10;96380.25;10115725;28;96809;-74
2022/07/23 23:10:25;;;;;;;9.88;8.77;;;;;;;21.78;60.58;96378.16;10128453;28;96738;-74
2022/07/23 23:15:29;;;;;;;9.00;8.05;;;;;;;21.62;61.21;96379.50;10123026;28;96896;-73
2022/07/23 23:20:32;;;;;;;9.98;8.98;;;;;;;21.44;61.62;96386.31;10121436;28;98006;-74
2022/07/23 23:25:35;;;;;;;8.98;8.15;;;;;;;21.33;61.79;96387.00;10122599;28;97039;-74
2022/07/23 23:30:39;;;;;;;9.45;8.35;;;;;;;21.34;61.54;96391.25;10122744;28;98567;-73
2022/07/23 23:35:42;;;;;;;9.93;8.93;;;;;;;21.36;61.75;96389.22;10127775;28;96802;-74
2022/07/23 23:40:45;;;;;;;9.80;8.88;;;;;;;21.34;62.26;96383.28;10119863;28;98698;-74